Mayer, AZ

12:52 AM MST on September 03, 2014 (GMT -0700)
Spring Valley | Change Station
CLOSE
Current Station
Personal Weather Station
Location: Mayer, AZ
Elevation: 3917 ft
Nearby Weather Stations

Elev 3917 ft 34.34 °N, 112.16 °W | Updated 20 minutes ago

Clear
Clear
65.7 °F
Feels Like 65.7 °F
N
1.0
Wind Variable Wind from WNW
Gusts 2.0 mph

Today
High -- | Low -- °F
--% Chance of Precip.
Yesterday
High -- | Low -- °F
Precip. -- in
6:03 AM 6:51 PM
First Quarter, 60% visible
Pressure 29.78 in
Visibility 10.0 miles
Clouds Clear
Dew Point 41 °F
Humidity 41%
Rainfall 0.00 in
Snow Depth Not available.
UV 0 out of 12
Pollen 7.20 out of 12
Air Quality Not available.
Flu Activity Not available.
METAR KPRC 030653Z 18008KT 10SM CLR 19/03 A3005 RMK AO2 SLP085 T01890028 403110133

More Conditions Fewer Conditions

Pressure 29.78 in
Visibility 10.0 miles
Clouds Clear
Dew Point 41 °F
Humidity 41%
Rainfall 0.00 in
Snow Depth Not available.
UV 0 out of 12
Pollen 7.20 out of 12
Air Quality Not available.
Flu Activity Not available.
METAR KPRC 030653Z 18008KT 10SM CLR 19/03 A3005 RMK AO2 SLP085 T01890028 403110133

More Conditions Fewer Conditions

10-Day Weather Forecast

Almanac

Astronomy

Sep. 03, 2014 Rise Set
Actual Time 6:03 AM MST 6:51 PM MST
Civil Twilight 5:37 AM MST 7:17 PM MST
Nautical Twilight 5:07 AM MST 7:47 PM MST
Astronomical Twilight 4:36 AM MST 8:18 PM MST
Moon 2:29 PM MST 12:08 AM MST
Length of Visible Light 13h 39m
Length of Day
12h 48m
Tomorrow will be 2m 3s shorter.
First Quarter, 60% of the Moon is Illuminated
Today
First Quarter
Sep 8
Full
Sep 15
Last Quarter
Sep 24
New
Oct 1
First Quarter

Today's Extremes

State Highs State Lows

Community

WunderPhotos

Upload Photos

1,749,899 photos uploaded!

Nearby

Snow Depth

Station Depth Elevation
White Horse Lake 0 in 7180 ft
Workman Creek 2 in 6900 ft
Snowslide Canyon 0 in 9730 ft
Maverick Fork 0 in 9200 ft
Beaver Head 24 in 7990 ft

Earthquake Activity

City Distance Mag. Time & Date
No recent earthquake activity has been reported nearby.
Minimum magnitude displayed is 2.5.

Coastal Water Temperatures

Place Temperature
No Stations Reporting

Nearby Weather Stations